Time;durP1;ratioP1;P1;durP2;ratioP2;P2;SDS_P1;SDS_P2;PMS_P1;PMS_P2;Temp;Humidity;BMP_temperature;BMP_pressure;BME280_temperature;BME280_humidity;BME280_pressure;Samples;Min_cycle;Max_cycle;Signal;HPM_P1;HPM_P2
2021/12/27 00:01:34;;;;;;;24.85;15.98;;;13.30;99.90;;;;;;4984781;28;112978;-69
2021/12/27 00:04:00;;;;;;;28.02;16.10;;;13.30;99.90;;;;;;4985288;28;112608;-69
2021/12/27 00:06:26;;;;;;;23.95;15.15;;;13.30;99.90;;;;;;4951192;28;112460;-70
2021/12/27 00:08:52;;;;;;;24.55;14.50;;;13.30;99.90;;;;;;4966592;28;115943;-70
2021/12/27 00:11:19;;;;;;;16.55;9.70;;;13.30;99.90;;;;;;4966835;28;113606;-70
2021/12/27 00:13:44;;;;;;;16.50;9.90;;;13.20;99.90;;;;;;4991607;28;112249;-70
2021/12/27 00:16:10;;;;;;;25.83;12.80;;;13.30;99.90;;;;;;5005086;28;112440;-70
2021/12/27 00:18:36;;;;;;;18.52;12.10;;;13.30;99.90;;;;;;4969541;28;114378;-69
2021/12/27 00:21:04;;;;;;;13.98;9.63;;;13.20;99.90;;;;;;5003745;28;113523;-69
2021/12/27 00:23:30;;;;;;;17.50;9.98;;;13.30;99.90;;;;;;5005512;28;112409;-70
2021/12/27 00:25:56;;;;;;;11.73;8.23;;;13.30;99.90;;;;;;4986948;28;113124;-71
2021/12/27 00:28:21;;;;;;;17.00;9.10;;;13.30;99.90;;;;;;5004475;28;112611;-67
2021/12/27 00:30:47;;;;;;;20.58;9.20;;;13.30;99.90;;;;;;5003700;28;112798;-69
2021/12/27 00:33:13;;;;;;;19.75;9.23;;;13.30;99.90;;;;;;5005211;28;112726;-68
2021/12/27 00:35:40;;;;;;;19.90;9.15;;;13.40;99.90;;;;;;5006101;28;112627;-69
2021/12/27 00:38:07;;;;;;;21.48;10.15;;;13.40;99.90;;;;;;4987612;28;114037;-69
2021/12/27 00:40:33;;;;;;;18.85;9.75;;;13.40;99.90;;;;;;5003777;28;112509;-70
2021/12/27 00:42:59;;;;;;;21.20;9.52;;;13.50;99.90;;;;;;4987931;28;112541;-70
2021/12/27 00:45:25;;;;;;;20.48;10.82;;;13.50;99.90;;;;;;5004555;28;112397;-70
2021/12/27 00:47:51;;;;;;;16.45;9.93;;;13.50;99.90;;;;;;4986009;28;112881;-69
2021/12/27 00:50:17;;;;;;;21.75;11.30;;;13.40;99.90;;;;;;4998136;28;112580;-70
2021/12/27 00:52:43;;;;;;;18.65;10.43;;;13.40;99.90;;;;;;4984870;28;112826;-69
2021/12/27 00:55:12;;;;;;;25.85;9.98;;;13.40;99.90;;;;;;4983085;28;112802;-68
2021/12/27 00:57:38;;;;;;;21.63;11.07;;;13.40;99.90;;;;;;4983260;28;114426;-69
2021/12/27 01:00:07;;;;;;;15.93;10.07;;;13.40;99.90;;;;;;4982341;28;113708;-68
2021/12/27 01:02:33;;;;;;;;;;;13.40;99.90;;;;;;4984738;28;112641;-70
2021/12/27 01:04:59;;;;;;;22.73;11.43;;;13.40;99.90;;;;;;4986439;28;112511;-68
2021/12/27 01:07:24;;;;;;;19.98;9.50;;;13.40;99.90;;;;;;4983559;28;113403;-69
2021/12/27 01:10:04;;;;;;;18.35;10.75;;;13.40;99.90;;;;;;4983586;28;113504;-71
2021/12/27 01:12:50;;;;;;;;;;;13.40;99.90;;;;;;4984534;28;112671;-69
2021/12/27 01:17:47;;;;;;;16.98;9.80;;;13.50;99.90;;;;;;4984125;28;112788;-69
2021/12/27 01:20:24;;;;;;;18.65;8.80;;;13.50;99.90;;;;;;4984412;28;112547;-69
2021/12/27 01:22:51;;;;;;;18.33;9.45;;;13.50;99.90;;;;;;4984512;28;112622;-70
2021/12/27 01:25:17;;;;;;;20.90;9.93;;;13.50;99.90;;;;;;4983963;28;113331;-70
2021/12/27 01:27:43;;;;;;;23.33;9.68;;;13.50;99.90;;;;;;4983119;28;116771;-68
2021/12/27 01:30:12;;;;;;;20.85;8.70;;;13.60;99.90;;;;;;4984021;28;112492;-69
2021/12/27 01:32:46;;;;;;;16.93;7.13;;;13.70;99.90;;;;;;4990467;28;112420;-69
2021/12/27 01:35:12;;;;;;;12.07;5.35;;;13.80;99.90;;;;;;5004449;28;112581;-69
2021/12/27 01:37:37;;;;;;;11.38;3.45;;;13.90;99.90;;;;;;5004222;28;113207;-69
2021/12/27 01:40:05;;;;;;;11.90;3.70;;;14.10;99.90;;;;;;4986388;28;112946;-67
2021/12/27 01:42:31;;;;;;;10.50;5.15;;;14.40;99.90;;;;;;4985070;28;112900;-69
2021/12/27 01:44:57;;;;;;;7.90;3.35;;;14.50;99.90;;;;;;4987410;28;112431;-69
2021/12/27 01:47:23;;;;;;;7.68;2.67;;;14.70;99.90;;;;;;5003862;28;114210;-69
2021/12/27 01:49:49;;;;;;;9.30;2.47;;;14.80;99.90;;;;;;4983742;28;114059;-69
2021/12/27 01:52:15;;;;;;;11.85;3.60;;;15.00;99.90;;;;;;4966929;28;112843;-69
2021/12/27 01:54:41;;;;;;;10.75;4.82;;;15.00;99.90;;;;;;4984394;28;112527;-70
2021/12/27 01:57:07;;;;;;;12.82;4.45;;;15.10;99.90;;;;;;4983785;28;112874;-68
2021/12/27 01:59:33;;;;;;;25.90;7.22;;;15.20;99.90;;;;;;4965880;28;113019;-69
2021/12/27 02:01:59;;;;;;;35.17;6.70;;;15.50;99.90;;;;;;4984882;28;112592;-69
2021/12/27 02:04:24;;;;;;;21.17;4.57;;;15.70;99.90;;;;;;4984267;28;112574;-69
2021/12/27 02:06:50;;;;;;;24.92;3.50;;;15.80;99.90;;;;;;4983597;28;115101;-68
2021/12/27 02:09:30;;;;;;;18.42;4.30;;;16.10;99.90;;;;;;4984217;28;112279;-71
2021/12/27 02:11:55;;;;;;;;;;;16.30;99.90;;;;;;4984451;28;112295;-69
2021/12/27 02:14:21;;;;;;;24.42;4.75;;;16.40;99.90;;;;;;4985677;28;112330;-69
2021/12/27 02:16:47;;;;;;;7.93;1.40;;;16.50;99.90;;;;;;4983530;28;113068;-69
2021/12/27 02:19:13;;;;;;;2.28;0.80;;;16.60;99.90;;;;;;4984050;28;112818;-68
2021/12/27 02:21:38;;;;;;;6.82;1.75;;;16.70;99.90;;;;;;4965689;28;112508;-68
2021/12/27 02:24:07;;;;;;;7.63;1.50;;;16.70;99.90;;;;;;4983797;28;113440;-69
2021/12/27 02:26:33;;;;;;;12.50;2.67;;;16.70;99.90;;;;;;4949176;28;115301;-71
2021/12/27 02:28:59;;;;;;;8.35;1.40;;;16.70;99.90;;;;;;4983267;28;112657;-70
2021/12/27 02:31:27;;;;;;;5.45;1.10;;;16.70;99.90;;;;;;4984115;28;112563;-70
2021/12/27 02:33:53;;;;;;;6.80;1.38;;;16.60;99.90;;;;;;4983714;28;112577;-70
2021/12/27 02:36:19;;;;;;;3.92;1.05;;;16.50;99.90;;;;;;4983621;28;113483;-69
2021/12/27 02:38:46;;;;;;;5.60;1.70;;;16.40;99.90;;;;;;4983135;28;113447;-69
2021/12/27 02:41:12;;;;;;;8.05;1.55;;;16.30;99.90;;;;;;4983591;28;112349;-69
2021/12/27 02:43:41;;;;;;;5.38;1.35;;;16.30;99.90;;;;;;4983691;28;112718;-70
2021/12/27 02:46:10;;;;;;;4.28;1.30;;;16.20;99.90;;;;;;4982973;28;114310;-69
2021/12/27 02:48:45;;;;;;;3.10;1.23;;;16.20;99.90;;;;;;4982606;28;112746;-69
2021/12/27 02:51:12;;;;;;;6.07;1.10;;;16.10;99.90;;;;;;4996759;28;112462;-69
2021/12/27 02:53:37;;;;;;;4.85;1.35;;;16.10;99.90;;;;;;5004154;28;112621;-69
2021/12/27 02:56:06;;;;;;;3.10;1.20;;;16.10;99.90;;;;;;4983724;28;114280;-69
2021/12/27 02:58:34;;;;;;;5.65;1.35;;;16.00;99.90;;;;;;5005268;28;113927;-68
2021/12/27 03:01:05;;;;;;;2.78;0.80;;;16.00;99.90;;;;;;5006837;28;112485;-71
2021/12/27 03:03:31;;;;;;;4.53;1.25;;;15.90;99.90;;;;;;5028078;22;113398;-71
2021/12/27 03:05:57;;;;;;;4.15;1.50;;;15.90;99.90;;;;;;4988366;28;114686;-71
2021/12/27 03:08:24;;;;;;;6.85;1.65;;;15.80;99.90;;;;;;5005543;28;113312;-71
2021/12/27 03:10:53;;;;;;;6.60;1.30;;;15.80;99.90;;;;;;5006768;28;112488;-70
2021/12/27 03:13:30;;;;;;;7.43;1.80;;;15.70;99.90;;;;;;4988538;28;112389;-72
2021/12/27 03:16:02;;;;;;;6.63;1.30;;;15.70;99.90;;;;;;5006071;28;113501;-70
2021/12/27 03:18:28;;;;;;;8.45;2.72;;;15.70;99.90;;;;;;5006230;28;112844;-70
2021/12/27 03:20:55;;;;;;;9.80;2.80;;;15.70;99.90;;;;;;5015083;28;112640;-70
2021/12/27 03:23:21;;;;;;;13.43;2.55;;;15.70;99.90;;;;;;5031218;22;112737;-71
2021/12/27 03:25:47;;;;;;;11.77;2.72;;;15.70;99.90;;;;;;5009870;28;113206;-69
2021/12/27 03:28:14;;;;;;;10.75;3.05;;;15.80;99.90;;;;;;5008425;28;114235;-67
2021/12/27 03:30:42;;;;;;;16.20;3.13;;;15.80;99.90;;;;;;5026807;28;112911;-68
2021/12/27 03:33:10;;;;;;;18.63;3.58;;;15.80;99.90;;;;;;5027444;28;112605;-68
2021/12/27 03:35:39;;;;;;;15.32;3.58;;;15.80;99.90;;;;;;5025267;28;113787;-68
2021/12/27 03:38:10;;;;;;;23.88;4.07;;;15.80;99.90;;;;;;5025816;28;112463;-71
2021/12/27 03:40:37;;;;;;;17.95;3.78;;;15.90;99.90;;;;;;5026719;28;112492;-71
2021/12/27 03:43:04;;;;;;;18.35;4.35;;;16.10;99.90;;;;;;5027937;28;112364;-69
2021/12/27 03:45:33;;;;;;;22.15;5.13;;;16.10;99.90;;;;;;5026997;28;113524;-69
2021/12/27 03:48:00;;;;;;;;;;;16.10;99.90;;;;;;5025296;28;113263;-70
2021/12/27 03:50:26;;;;;;;24.15;5.53;;;16.10;99.90;;;;;;5008662;28;112296;-68
2021/12/27 03:52:53;;;;;;;13.07;3.72;;;16.10;99.90;;;;;;5008194;28;112594;-68
2021/12/27 03:55:19;;;;;;;19.75;3.53;;;16.10;99.90;;;;;;5025391;28;112914;-68
2021/12/27 03:57:52;;;;;;;13.07;2.40;;;16.10;99.90;;;;;;5024765;28;112641;-67
2021/12/27 04:02:47;;;;;;;9.13;3.00;;;16.00;99.90;;;;;;5025615;28;112589;-70
2021/12/27 04:05:13;;;;;;;12.35;2.80;;;15.90;99.90;;;;;;5025266;28;113047;-68
2021/12/27 04:07:40;;;;;;;15.48;3.97;;;15.90;99.90;;;;;;5005556;28;112655;-69
2021/12/27 04:10:08;;;;;;;11.95;3.35;;;15.90;99.90;;;;;;5026046;28;112682;-70
2021/12/27 04:12:35;;;;;;;15.30;4.20;;;15.90;99.90;;;;;;5026284;28;112732;-69
2021/12/27 04:15:02;;;;;;;18.90;4.05;;;16.00;99.90;;;;;;5024746;28;113573;-68
2021/12/27 04:17:28;;;;;;;10.07;2.80;;;16.00;99.90;;;;;;5018206;28;112560;-69
2021/12/27 04:19:54;;;;;;;16.92;3.47;;;16.10;99.90;;;;;;4971645;28;112464;-67
2021/12/27 04:22:21;;;;;;;15.35;3.13;;;16.20;99.90;;;;;;5005038;28;112346;-70
2021/12/27 04:24:46;;;;;;;10.85;2.95;;;16.30;99.90;;;;;;5005039;28;114372;-68
2021/12/27 04:27:12;;;;;;;11.18;2.40;;;16.30;99.90;;;;;;5004401;28;112594;-68
2021/12/27 04:29:38;;;;;;;18.23;3.15;;;16.30;99.90;;;;;;5005731;28;112454;-70
2021/12/27 04:32:04;;;;;;;7.95;2.42;;;16.30;99.90;;;;;;4987663;28;112541;-68
2021/12/27 04:34:30;;;;;;;11.38;2.25;;;16.20;99.90;;;;;;4986721;28;115511;-68
2021/12/27 04:36:56;;;;;;;13.98;2.60;;;16.20;99.90;;;;;;5004779;28;114185;-71
2021/12/27 04:39:21;;;;;;;11.10;2.65;;;16.20;99.90;;;;;;5005446;28;112666;-68
2021/12/27 04:41:48;;;;;;;11.48;2.65;;;16.20;99.90;;;;;;5005957;28;112718;-69
2021/12/27 04:44:14;;;;;;;9.13;2.65;;;16.10;99.90;;;;;;4986609;28;115190;-68
2021/12/27 04:46:41;;;;;;;23.98;7.07;;;15.90;99.90;;;;;;5004805;28;113660;-68
2021/12/27 04:49:06;;;;;;;29.33;6.05;;;15.80;99.90;;;;;;5005423;28;112461;-70
2021/12/27 04:51:32;;;;;;;25.90;5.05;;;15.70;99.90;;;;;;5005175;28;112889;-70
2021/12/27 04:53:58;;;;;;;22.80;5.05;;;15.60;99.90;;;;;;4986272;28;113378;-69
2021/12/27 04:56:25;;;;;;;19.48;4.88;;;15.50;99.90;;;;;;5004420;28;112366;-67
2021/12/27 04:58:51;;;;;;;23.92;5.07;;;15.40;99.90;;;;;;5004993;28;112764;-68
2021/12/27 05:01:17;;;;;;;9.63;2.65;;;15.40;99.90;;;;;;5005142;28;112521;-66
2021/12/27 05:03:43;;;;;;;8.38;2.72;;;15.20;99.90;;;;;;4985859;28;113171;-68
2021/12/27 05:06:09;;;;;;;13.68;3.13;;;15.20;99.90;;;;;;5004488;28;112451;-67
2021/12/27 05:08:35;;;;;;;10.13;2.85;;;15.10;99.90;;;;;;5004881;28;112976;-71
2021/12/27 05:11:01;;;;;;;13.80;2.88;;;15.00;99.90;;;;;;5004574;28;112755;-68
2021/12/27 05:13:31;;;;;;;11.52;2.78;;;14.90;99.90;;;;;;5003149;28;113815;-68
2021/12/27 05:15:58;;;;;;;13.45;2.60;;;14.90;99.90;;;;;;5002940;28;114200;-67
2021/12/27 05:18:24;;;;;;;23.35;4.68;;;14.80;99.90;;;;;;5018378;27;112616;-69
2021/12/27 05:20:50;;;;;;;14.38;3.55;;;14.80;99.90;;;;;;5025349;28;112523;-68
2021/12/27 05:23:16;;;;;;;10.80;3.05;;;14.80;99.90;;;;;;5023580;28;114047;-69
2021/12/27 05:25:42;;;;;;;11.32;3.05;;;14.70;99.90;;;;;;5024623;28;112810;-70
2021/12/27 05:28:09;;;;;;;10.52;4.05;;;14.70;99.90;;;;;;5025056;28;112577;-68
2021/12/27 05:30:35;;;;;;;18.02;3.70;;;14.70;99.90;;;;;;5006522;28;112719;-69
2021/12/27 05:33:02;;;;;;;8.80;2.88;;;14.70;99.90;;;;;;5005978;28;113301;-70
2021/12/27 05:35:27;;;;;;;14.25;3.35;;;14.70;99.90;;;;;;5005287;28;115411;-69
2021/12/27 05:37:53;;;;;;;14.63;3.15;;;14.70;99.90;;;;;;4990264;28;112707;-69
2021/12/27 05:40:22;;;;;;;13.75;3.45;;;14.70;99.90;;;;;;5024251;28;112429;-69
2021/12/27 05:42:53;;;;;;;18.02;5.00;;;14.70;99.90;;;;;;5020836;28;114184;-68
2021/12/27 05:45:19;;;;;;;14.10;3.22;;;14.70;99.90;;;;;;5005871;28;113051;-70
2021/12/27 05:47:46;;;;;;;22.55;4.88;;;14.70;99.90;;;;;;5024127;28;112514;-68
2021/12/27 05:50:14;;;;;;;20.92;5.38;;;14.70;99.90;;;;;;5006036;28;112691;-72
2021/12/27 05:52:40;;;;;;;16.08;5.22;;;14.70;99.90;;;;;;5023376;28;112983;-69
2021/12/27 05:55:08;;;;;;;31.50;10.38;;;14.90;99.90;;;;;;5004949;28;114200;-70
2021/12/27 05:57:35;;;;;;;39.72;10.32;;;15.00;99.90;;;;;;5006055;28;112664;-69
2021/12/27 06:00:01;;;;;;;43.33;12.15;;;15.20;99.90;;;;;;5023893;28;112553;-71
2021/12/27 06:02:27;;;;;;;31.45;11.30;;;15.30;99.90;;;;;;4984181;28;116031;-71
2021/12/27 06:04:52;;;;;;;40.92;13.95;;;15.40;99.90;;;;;;5002320;28;112520;-69
2021/12/27 06:07:18;;;;;;;35.00;13.10;;;15.40;99.90;;;;;;4968271;28;112481;-68
2021/12/27 06:09:44;;;;;;;29.88;5.72;;;15.40;99.90;;;;;;5003015;28;112461;-70
2021/12/27 06:12:10;;;;;;;13.48;4.38;;;15.40;99.90;;;;;;5003171;28;112871;-68
2021/12/27 06:14:36;;;;;;;15.25;4.03;;;15.40;99.90;;;;;;5022076;28;112789;-69
2021/12/27 06:17:03;;;;;;;18.77;4.97;;;15.40;99.90;;;;;;5020469;28;113720;-70
2021/12/27 06:19:29;;;;;;;15.60;4.85;;;15.30;99.90;;;;;;5004388;28;112259;-69
2021/12/27 06:21:56;;;;;;;15.23;4.03;;;15.30;99.90;;;;;;5003417;28;113086;-69
2021/12/27 06:24:22;;;;;;;17.77;3.35;;;15.20;99.90;;;;;;5003300;28;112580;-70
2021/12/27 06:26:48;;;;;;;14.38;3.58;;;15.10;99.90;;;;;;5005828;28;113514;-68
2021/12/27 06:29:14;;;;;;;16.13;4.03;;;15.00;99.90;;;;;;4996945;22;114092;-74
2021/12/27 06:31:39;;;;;;;9.77;3.40;;;15.00;99.90;;;;;;4985055;28;112505;-70
2021/12/27 06:34:05;;;;;;;13.00;3.47;;;15.10;99.90;;;;;;4987261;28;113459;-71
2021/12/27 06:36:32;;;;;;;14.40;4.50;;;15.10;99.90;;;;;;4988360;28;112680;-71
2021/12/27 06:38:59;;;;;;;17.40;5.03;;;15.10;99.90;;;;;;4990104;28;112781;-71
2021/12/27 06:41:25;;;;;;;22.95;4.80;;;15.00;99.90;;;;;;5007869;22;114524;-66
2021/12/27 06:43:54;;;;;;;17.40;5.32;;;15.00;99.90;;;;;;5008561;28;115924;-69
2021/12/27 06:46:20;;;;;;;32.53;6.07;;;15.00;99.90;;;;;;5035347;22;113825;-67
2021/12/27 06:48:46;;;;;;;18.50;5.00;;;14.90;99.90;;;;;;5007271;28;112508;-72
2021/12/27 06:51:11;;;;;;;21.45;4.85;;;14.90;99.90;;;;;;5016769;22;114230;-67
2021/12/27 06:53:37;;;;;;;14.98;4.13;;;14.90;99.90;;;;;;5044718;27;115037;-69
2021/12/27 06:56:05;;;;;;;19.52;4.75;;;14.80;99.90;;;;;;5047708;27;112588;-68
2021/12/27 06:58:31;;;;;;;21.10;4.18;;;14.80;99.90;;;;;;5027790;27;112613;-68
2021/12/27 07:00:57;;;;;;;18.67;3.35;;;14.80;99.90;;;;;;5047370;27;113534;-68
2021/12/27 07:03:23;;;;;;;12.05;2.97;;;14.80;99.90;;;;;;5028317;27;113779;-68
2021/12/27 07:05:49;;;;;;;16.60;3.38;;;14.80;99.90;;;;;;5029279;27;112621;-68
2021/12/27 07:08:16;;;;;;;16.75;3.28;;;14.90;99.90;;;;;;5047754;27;112764;-66
2021/12/27 07:10:42;;;;;;;13.90;4.25;;;15.00;99.90;;;;;;5011424;27;116070;-68
2021/12/27 07:13:09;;;;;;;26.10;5.57;;;15.00;99.90;;;;;;5027852;27;113438;-67
2021/12/27 07:15:41;;;;;;;13.80;4.40;;;15.00;99.90;;;;;;5047404;27;113713;-68
2021/12/27 07:18:09;;;;;;;19.52;4.20;;;15.00;99.90;;;;;;5046387;27;112946;-68
2021/12/27 07:20:35;;;;;;;18.20;5.30;;;15.10;99.90;;;;;;5045661;27;112956;-67
2021/12/27 07:23:02;;;;;;;19.50;4.55;;;15.10;99.90;;;;;;5042071;27;112859;-66
2021/12/27 07:25:28;;;;;;;17.58;4.78;;;15.10;99.90;;;;;;5015931;27;113303;-66
2021/12/27 07:27:54;;;;;;;20.73;4.20;;;15.10;99.90;;;;;;5035628;27;112585;-68
2021/12/27 07:30:19;;;;;;;20.35;5.05;;;15.10;99.90;;;;;;5035080;27;113059;-68
2021/12/27 07:32:45;;;;;;;19.30;4.95;;;15.10;99.90;;;;;;5035574;27;112587;-67
2021/12/27 07:35:12;;;;;;;17.38;5.53;;;15.20;99.90;;;;;;5037301;27;113790;-68
2021/12/27 07:37:39;;;;;;;12.90;3.90;;;15.20;99.90;;;;;;5046012;27;112713;-68
2021/12/27 07:40:06;;;;;;;22.60;3.92;;;15.20;99.90;;;;;;5043962;27;113030;-67
2021/12/27 07:42:32;;;;;;;16.83;3.78;;;15.30;99.90;;;;;;5024885;27;115082;-68
2021/12/27 07:44:58;;;;;;;17.20;4.28;;;15.30;99.90;;;;;;5027212;27;112611;-69
2021/12/27 07:47:23;;;;;;;15.68;4.95;;;15.40;99.90;;;;;;5033828;27;112770;-68
2021/12/27 07:49:49;;;;;;;19.08;5.07;;;15.50;99.90;;;;;;5015959;28;113017;-70
2021/12/27 07:52:15;;;;;;;12.60;3.88;;;15.50;99.90;;;;;;5024688;28;112944;-66
2021/12/27 07:54:41;;;;;;;17.00;4.85;;;15.50;99.90;;;;;;5025421;28;112314;-68
2021/12/27 07:57:07;;;;;;;19.98;4.20;;;15.50;99.90;;;;;;5025955;28;112598;-68
2021/12/27 07:59:33;;;;;;;18.35;4.65;;;15.60;99.90;;;;;;5025098;28;112962;-67
2021/12/27 08:01:59;;;;;;;16.55;4.55;;;15.50;99.90;;;;;;5026424;27;113214;-68
2021/12/27 08:04:24;;;;;;;19.25;4.45;;;15.50;99.90;;;;;;5042224;27;112637;-68
2021/12/27 08:06:51;;;;;;;13.85;3.53;;;15.50;99.90;;;;;;5041496;27;112708;-68
2021/12/27 08:09:17;;;;;;;15.15;3.63;;;15.50;99.90;;;;;;5023876;27;114324;-69
2021/12/27 08:11:43;;;;;;;17.55;3.83;;;15.50;99.90;;;;;;5055814;27;112830;-68
2021/12/27 08:14:09;;;;;;;14.65;3.95;;;15.60;99.90;;;;;;5055148;27;112493;-67
2021/12/27 08:16:34;;;;;;;13.02;2.85;;;15.70;99.90;;;;;;5048891;27;112802;-69
2021/12/27 08:19:00;;;;;;;13.82;2.95;;;15.80;99.90;;;;;;5007242;27;113065;-67
2021/12/27 08:21:28;;;;;;;7.90;2.63;;;15.90;99.90;;;;;;5039452;27;114018;-64
2021/12/27 08:23:55;;;;;;;13.50;2.65;;;16.00;99.90;;;;;;5037021;27;115107;-67
2021/12/27 08:26:21;;;;;;;7.15;2.08;;;16.10;99.90;;;;;;5039493;27;112843;-68
2021/12/27 08:28:50;;;;;;;7.70;2.45;;;16.10;99.90;;;;;;5028975;27;115136;-70
2021/12/27 08:31:16;;;;;;;10.02;2.10;;;16.20;99.90;;;;;;5038738;27;112793;-68
2021/12/27 08:33:42;;;;;;;8.55;2.33;;;16.20;99.90;;;;;;5032649;27;112891;-66
2021/12/27 08:36:08;;;;;;;13.65;2.53;;;16.20;99.90;;;;;;5018755;27;112681;-66
2021/12/27 08:38:34;;;;;;;9.43;2.30;;;16.30;99.90;;;;;;5011737;28;113966;-68
2021/12/27 08:41:00;;;;;;;10.18;2.17;;;16.30;99.90;;;;;;5046769;27;113837;-67
2021/12/27 08:43:26;;;;;;;10.32;3.22;;;16.30;99.90;;;;;;5009420;27;112490;-68
2021/12/27 08:45:52;;;;;;;9.35;2.30;;;16.40;99.90;;;;;;5014260;27;112670;-68
2021/12/27 08:48:19;;;;;;;9.48;1.92;;;16.40;99.90;;;;;;5043785;27;113325;-69
2021/12/27 08:50:44;;;;;;;6.53;2.33;;;16.40;99.90;;;;;;5036851;27;113561;-62
2021/12/27 08:53:10;;;;;;;14.32;2.55;;;16.50;99.90;;;;;;5053763;27;112632;-66
2021/12/27 08:55:37;;;;;;;6.97;1.88;;;16.50;99.90;;;;;;5044723;27;112811;-67
2021/12/27 08:58:04;;;;;;;4.85;1.58;;;16.60;99.90;;;;;;5039422;27;113210;-67
2021/12/27 09:00:30;;;;;;;41.05;5.20;;;16.60;99.90;;;;;;5038663;27;114064;-67
2021/12/27 09:02:56;;;;;;;20.52;3.58;;;16.60;99.90;;;;;;5045125;27;112714;-69
2021/12/27 09:05:22;;;;;;;27.52;3.88;;;16.70;99.90;;;;;;5058542;27;112579;-67
2021/12/27 09:07:48;;;;;;;8.60;2.63;;;16.70;99.90;;;;;;5016497;28;114146;-68
2021/12/27 09:10:14;;;;;;;9.07;3.03;;;16.80;99.90;;;;;;5037716;27;113376;-68
2021/12/27 09:12:40;;;;;;;14.25;3.13;;;16.80;99.90;;;;;;5024605;27;112549;-63
2021/12/27 09:15:08;;;;;;;11.60;3.40;;;16.80;99.90;;;;;;5047247;27;112521;-66
2021/12/27 09:17:34;;;;;;;16.95;3.63;;;16.80;99.90;;;;;;5055150;27;113029;-66
2021/12/27 09:20:00;;;;;;;21.88;5.68;;;16.90;99.90;;;;;;5043580;27;112847;-67
2021/12/27 09:22:25;;;;;;;15.43;4.65;;;16.90;99.90;;;;;;5036006;27;113523;-67
2021/12/27 09:24:51;;;;;;;17.10;4.35;;;17.00;99.90;;;;;;5037636;27;112354;-67
2021/12/27 09:27:18;;;;;;;31.85;6.13;;;17.10;99.90;;;;;;5039683;27;113920;-68
2021/12/27 09:29:44;;;;;;;20.95;4.93;;;17.20;99.90;;;;;;5025988;27;112732;-66
2021/12/27 09:32:11;;;;;;;22.85;4.85;;;17.20;99.90;;;;;;5045149;27;112868;-66
2021/12/27 09:34:39;;;;;;;12.60;4.28;;;17.30;99.90;;;;;;5023479;27;112667;-64
2021/12/27 09:37:05;;;;;;;12.75;4.15;;;17.40;99.90;;;;;;5052250;27;113154;-66
2021/12/27 09:39:31;;;;;;;12.30;4.30;;;17.40;99.90;;;;;;5044474;27;113702;-71
2021/12/27 09:41:57;;;;;;;15.32;4.55;;;17.60;99.90;;;;;;5051569;27;113045;-68
2021/12/27 09:44:23;;;;;;;11.30;3.78;;;17.70;99.90;;;;;;5034262;27;112542;-68
2021/12/27 09:46:49;;;;;;;19.17;5.15;;;17.80;99.90;;;;;;5041888;27;113097;-68
2021/12/27 09:49:17;;;;;;;17.90;4.30;;;17.90;99.90;;;;;;5012219;27;112697;-68
2021/12/27 09:51:45;;;;;;;24.83;3.95;;;18.00;99.90;;;;;;5037108;27;112468;-68
2021/12/27 09:54:11;;;;;;;20.63;4.15;;;18.10;99.90;;;;;;5038673;27;112781;-69
2021/12/27 09:56:37;;;;;;;16.63;3.90;;;18.20;99.90;;;;;;5042018;27;114194;-66
2021/12/27 09:59:04;;;;;;;15.80;3.85;;;18.20;99.90;;;;;;5021995;27;112991;-61
2021/12/27 10:01:30;;;;;;;23.65;4.95;;;18.30;99.90;;;;;;5040272;27;112582;-62
2021/12/27 10:04:00;;;;;;;23.83;4.95;;;18.30;99.90;;;;;;5041459;27;112661;-64
2021/12/27 10:06:27;;;;;;;34.00;6.00;;;18.40;99.90;;;;;;5035560;27;113041;-63
2021/12/27 10:08:59;;;;;;;21.20;3.75;;;18.50;99.90;;;;;;5040548;27;113596;-64
2021/12/27 10:11:31;;;;;;;14.57;3.35;;;18.50;99.90;;;;;;5047187;27;112404;-64
2021/12/27 10:14:19;;;;;;;9.95;3.20;;;18.60;99.90;;;;;;5052723;27;112648;-62
2021/12/27 10:16:45;;;;;;;13.20;3.67;;;18.60;99.90;;;;;;5052751;27;113053;-63
2021/12/27 10:19:15;;;;;;;14.20;3.20;;;18.60;99.90;;;;;;5043302;27;112636;-63
2021/12/27 10:21:49;;;;;;;17.98;3.78;;;18.80;99.90;;;;;;5022678;27;113692;-61
2021/12/27 10:24:20;;;;;;;16.77;2.38;;;18.90;99.90;;;;;;5041151;27;112492;-61
2021/12/27 10:26:49;;;;;;;23.83;3.83;;;18.90;99.90;;;;;;5052945;27;114920;-60
2021/12/27 10:29:26;;;;;;;6.60;1.67;;;19.00;99.90;;;;;;5043515;27;112998;-64
2021/12/27 10:32:04;;;;;;;7.50;2.22;;;19.00;99.90;;;;;;5029974;27;112617;-65
2021/12/27 10:34:37;;;;;;;57.65;8.07;;;19.00;99.90;;;;;;5038435;27;112307;-61
2021/12/27 10:37:10;;;;;;;8.25;2.50;;;19.00;99.90;;;;;;5055235;27;113364;-63
2021/12/27 10:39:51;;;;;;;14.35;2.50;;;19.00;99.90;;;;;;5046510;27;113468;-61
2021/12/27 10:42:22;;;;;;;6.53;2.03;;;19.00;99.90;;;;;;5050055;27;112571;-61
2021/12/27 10:44:51;;;;;;;3.67;1.55;;;19.00;99.90;;;;;;5023641;27;114083;-63
2021/12/27 10:47:30;;;;;;;6.03;1.67;;;18.90;99.90;;;;;;5055527;27;113968;-62
2021/12/27 10:50:02;;;;;;;10.40;2.20;;;18.90;99.90;;;;;;5018391;27;114420;-63
2021/12/27 10:52:48;;;;;;;10.23;2.35;;;18.80;99.90;;;;;;5030682;27;112589;-61
2021/12/27 10:55:18;;;;;;;15.43;3.05;;;18.80;99.90;;;;;;5040384;27;112817;-63
2021/12/27 10:57:44;;;;;;;5.87;2.37;;;18.90;99.90;;;;;;5040997;27;113432;-61
2021/12/27 11:00:15;;;;;;;7.07;1.50;;;19.00;99.90;;;;;;5013315;28;114455;-64
2021/12/27 11:02:41;;;;;;;2.10;1.05;;;19.10;99.90;;;;;;5043054;27;112629;-63
2021/12/27 11:05:16;;;;;;;4.05;1.30;;;19.20;99.90;;;;;;5059790;27;112476;-63
2021/12/27 11:07:42;;;;;;;5.32;1.90;;;19.30;99.90;;;;;;5049392;27;114869;-63
2021/12/27 11:10:08;;;;;;;15.30;1.67;;;19.40;99.90;;;;;;5049979;27;112743;-63
2021/12/27 11:12:34;;;;;;;6.32;1.05;;;19.50;99.90;;;;;;5035639;27;112827;-60
2021/12/27 11:15:00;;;;;;;5.25;1.10;;;19.60;99.90;;;;;;5036970;27;112615;-63
2021/12/27 11:17:26;;;;;;;2.80;1.23;;;19.60;99.90;;;;;;5038757;27;116411;-63
2021/12/27 11:19:52;;;;;;;2.45;1.13;;;19.70;99.80;;;;;;5043879;27;114026;-64
2021/12/27 11:22:20;;;;;;;2.97;1.20;;;19.70;99.20;;;;;;5032733;27;112771;-63
2021/12/27 11:24:46;;;;;;;4.10;1.57;;;19.70;98.00;;;;;;5035936;27;112511;-62
2021/12/27 11:27:14;;;;;;;4.28;1.08;;;19.70;97.50;;;;;;4998891;27;116364;-62
2021/12/27 11:29:40;;;;;;;2.17;1.00;;;19.80;97.30;;;;;;5038572;27;113619;-61
2021/12/27 11:32:17;;;;;;;7.03;1.17;;;19.80;97.20;;;;;;5053150;27;112665;-63
2021/12/27 11:34:58;;;;;;;5.80;1.40;;;19.70;97.40;;;;;;5050706;27;115275;-64
2021/12/27 11:37:41;;;;;;;4.57;1.58;;;19.70;96.90;;;;;;5027613;27;114229;-64
2021/12/27 11:40:16;;;;;;;6.90;1.40;;;19.70;97.00;;;;;;5041969;27;112654;-70
2021/12/27 11:43:00;;;;;;;4.28;2.20;;;19.70;96.90;;;;;;5042036;27;112768;-62
2021/12/27 11:45:50;;;;;;;7.80;1.75;;;19.70;97.10;;;;;;5034073;27;112705;-70
2021/12/27 11:50:59;;;;;;;4.88;2.22;;;19.60;96.60;;;;;;4994326;28;113855;-60
2021/12/27 11:53:41;;;;;;;18.17;3.75;;;19.60;96.60;;;;;;5004107;28;112967;-60
2021/12/27 11:56:14;;;;;;;11.25;3.63;;;19.60;96.50;;;;;;5001811;28;112642;-60
2021/12/27 11:58:44;;;;;;;17.85;3.58;;;19.60;96.70;;;;;;5034094;22;114664;-62
2021/12/27 12:01:21;;;;;;;14.75;2.97;;;19.60;96.60;;;;;;4984486;28;112513;-62
2021/12/27 12:03:49;;;;;;;9.82;3.42;;;19.50;96.60;;;;;;5003710;28;112661;-63
2021/12/27 12:06:43;;;;;;;14.48;3.33;;;19.50;97.00;;;;;;4996133;28;112581;-63
2021/12/27 12:09:19;;;;;;;12.90;2.92;;;19.50;96.80;;;;;;4988679;28;115635;-63
2021/12/27 12:12:00;;;;;;;16.33;3.30;;;19.40;96.90;;;;;;4986513;28;114565;-61
2021/12/27 12:14:36;;;;;;;9.43;2.47;;;19.40;96.80;;;;;;5001246;28;112462;-63
2021/12/27 12:17:09;;;;;;;5.10;1.98;;;19.30;96.60;;;;;;4981295;28;113566;-61
2021/12/27 12:19:45;;;;;;;12.38;2.97;;;19.30;96.90;;;;;;5004063;28;112871;-63
2021/12/27 12:22:37;;;;;;;15.45;3.40;;;19.30;97.30;;;;;;4991367;28;114178;-62
2021/12/27 12:25:18;;;;;;;5.15;1.83;;;19.20;97.60;;;;;;4988226;28;112612;-65
2021/12/27 12:28:23;;;;;;;4.30;1.48;;;19.20;96.90;;;;;;4993882;28;112438;-63
2021/12/27 12:30:50;;;;;;;4.82;1.70;;;19.20;96.40;;;;;;4957353;28;113048;-63
2021/12/27 12:33:26;;;;;;;9.07;1.42;;;19.20;96.40;;;;;;4930851;28;115263;-65
2021/12/27 12:36:00;;;;;;;10.90;1.30;;;19.20;96.10;;;;;;4969058;28;112695;-62
2021/12/27 12:38:38;;;;;;;13.98;2.55;;;19.20;96.30;;;;;;4999061;28;112505;-61
2021/12/27 12:41:17;;;;;;;7.65;2.08;;;19.20;96.50;;;;;;4999203;28;113601;-62
2021/12/27 12:43:54;;;;;;;11.80;2.58;;;19.20;96.40;;;;;;4992317;28;113142;-63